< < Back
Terminal Aerodrome Forecast


Current Version              Previous Versions:   1  2  3  4  5  6  7  8  9  

Terminal Aerodrome Forecast

185
FTUS42 KCAE 050243 AAA
TAFCAE
TAF AMD
KCAE 050243Z 0503/0524 VRB03KT P6SM SCT250
     FM051400 25007KT P6SM SCT050=

Latest METAR

178
SAUS80 KWBC 050200
MTRCAE
METAR KCAE 050156Z 20005KT 10SM SCT090 31/21 A2994 RMK AO2 SLP136
T03110211


USA.gov is the U.S. government's official web portal to all federal, state and local government web resources and services.